sensor_id;sensor_type;location;lat;lon;timestamp;temperature;humidity
240;DHT22;104;53.590;10.004;2022-08-23T00:02:07;17.70;90.50
240;DHT22;104;53.590;10.004;2022-08-23T00:04:37;17.60;90.70
240;DHT22;104;53.590;10.004;2022-08-23T00:07:06;17.50;90.90
240;DHT22;104;53.590;10.004;2022-08-23T00:09:34;17.60;91.00
240;DHT22;104;53.590;10.004;2022-08-23T00:12:06;17.50;91.10
240;DHT22;104;53.590;10.004;2022-08-23T00:14:37;17.50;91.20
240;DHT22;104;53.590;10.004;2022-08-23T00:17:07;17.60;91.10
240;DHT22;104;53.590;10.004;2022-08-23T00:19:35;17.50;91.00
240;DHT22;104;53.590;10.004;2022-08-23T00:22:02;17.50;90.90
240;DHT22;104;53.590;10.004;2022-08-23T00:24:30;17.50;91.00
240;DHT22;104;53.590;10.004;2022-08-23T00:26:59;17.50;90.90
240;DHT22;104;53.590;10.004;2022-08-23T00:29:29;17.40;91.00
240;DHT22;104;53.590;10.004;2022-08-23T00:31:57;17.40;90.90
240;DHT22;104;53.590;10.004;2022-08-23T00:34:25;17.40;91.20
240;DHT22;104;53.590;10.004;2022-08-23T00:36:53;17.40;91.30
240;DHT22;104;53.590;10.004;2022-08-23T00:39:20;17.40;91.20
240;DHT22;104;53.590;10.004;2022-08-23T00:41:48;17.40;91.00
240;DHT22;104;53.590;10.004;2022-08-23T00:44:20;17.30;91.00
240;DHT22;104;53.590;10.004;2022-08-23T00:47:07;17.20;91.50
240;DHT22;104;53.590;10.004;2022-08-23T00:49:58;17.20;91.70
240;DHT22;104;53.590;10.004;2022-08-23T00:52:35;17.10;92.00
240;DHT22;104;53.590;10.004;2022-08-23T00:55:04;17.00;92.40
240;DHT22;104;53.590;10.004;2022-08-23T00:57:32;16.90;92.90
240;DHT22;104;53.590;10.004;2022-08-23T00:59:59;16.90;94.20
240;DHT22;104;53.590;10.004;2022-08-23T01:02:26;16.80;94.70
240;DHT22;104;53.590;10.004;2022-08-23T01:04:57;16.80;94.90
240;DHT22;104;53.590;10.004;2022-08-23T01:07:33;16.80;95.00
240;DHT22;104;53.590;10.004;2022-08-23T01:10:08;16.70;95.10
240;DHT22;104;53.590;10.004;2022-08-23T01:12:40;16.70;95.30
240;DHT22;104;53.590;10.004;2022-08-23T01:15:13;16.70;95.50
240;DHT22;104;53.590;10.004;2022-08-23T01:17:45;16.70;95.80
240;DHT22;104;53.590;10.004;2022-08-23T01:20:17;16.60;95.90
240;DHT22;104;53.590;10.004;2022-08-23T01:22:48;16.50;95.90
240;DHT22;104;53.590;10.004;2022-08-23T01:25:21;16.40;96.00
240;DHT22;104;53.590;10.004;2022-08-23T01:27:48;16.40;96.00
240;DHT22;104;53.590;10.004;2022-08-23T01:30:19;16.40;96.10
240;DHT22;104;53.590;10.004;2022-08-23T01:32:49;16.40;95.90
240;DHT22;104;53.590;10.004;2022-08-23T01:35:18;16.40;96.00
240;DHT22;104;53.590;10.004;2022-08-23T01:37:46;16.40;96.10
240;DHT22;104;53.590;10.004;2022-08-23T01:40:13;16.40;96.00
240;DHT22;104;53.590;10.004;2022-08-23T01:42:42;16.30;96.30
240;DHT22;104;53.590;10.004;2022-08-23T01:45:11;16.20;96.70
240;DHT22;104;53.590;10.004;2022-08-23T01:47:39;16.20;96.80
240;DHT22;104;53.590;10.004;2022-08-23T01:50:07;16.20;96.80
240;DHT22;104;53.590;10.004;2022-08-23T01:52:36;16.20;96.80
240;DHT22;104;53.590;10.004;2022-08-23T01:55:04;16.10;96.70
240;DHT22;104;53.590;10.004;2022-08-23T01:57:31;16.10;96.80
240;DHT22;104;53.590;10.004;2022-08-23T02:00:13;16.00;96.80
240;DHT22;104;53.590;10.004;2022-08-23T02:02:41;16.00;96.80
240;DHT22;104;53.590;10.004;2022-08-23T02:05:08;16.00;96.80
240;DHT22;104;53.590;10.004;2022-08-23T02:07:35;15.90;96.80
240;DHT22;104;53.590;10.004;2022-08-23T02:10:04;15.80;96.80
240;DHT22;104;53.590;10.004;2022-08-23T02:12:30;15.80;96.80
240;DHT22;104;53.590;10.004;2022-08-23T02:15:02;15.70;96.80
240;DHT22;104;53.590;10.004;2022-08-23T02:17:31;15.70;96.80
240;DHT22;104;53.590;10.004;2022-08-23T02:20:04;15.60;96.80
240;DHT22;104;53.590;10.004;2022-08-23T02:25:49;15.40;96.80
240;DHT22;104;53.590;10.004;2022-08-23T02:28:17;15.40;96.80
240;DHT22;104;53.590;10.004;2022-08-23T02:30:45;15.40;96.80
240;DHT22;104;53.590;10.004;2022-08-23T02:33:14;15.40;96.80
240;DHT22;104;53.590;10.004;2022-08-23T02:35:41;15.40;96.80
240;DHT22;104;53.590;10.004;2022-08-23T02:38:10;15.40;96.80
240;DHT22;104;53.590;10.004;2022-08-23T02:40:37;15.40;96.80
240;DHT22;104;53.590;10.004;2022-08-23T02:43:08;15.40;96.80
240;DHT22;104;53.590;10.004;2022-08-23T02:45:36;15.30;96.80
240;DHT22;104;53.590;10.004;2022-08-23T02:48:04;15.30;96.80
240;DHT22;104;53.590;10.004;2022-08-23T02:50:34;15.30;96.80
240;DHT22;104;53.590;10.004;2022-08-23T02:53:01;15.20;96.80
240;DHT22;104;53.590;10.004;2022-08-23T02:55:29;15.10;96.80
240;DHT22;104;53.590;10.004;2022-08-23T02:57:56;15.10;96.80
240;DHT22;104;53.590;10.004;2022-08-23T03:00:23;15.00;96.80
240;DHT22;104;53.590;10.004;2022-08-23T03:02:51;15.10;96.80
240;DHT22;104;53.590;10.004;2022-08-23T03:05:18;15.00;96.80
240;DHT22;104;53.590;10.004;2022-08-23T03:07:46;14.90;96.80
240;DHT22;104;53.590;10.004;2022-08-23T03:10:14;14.90;96.80
240;DHT22;104;53.590;10.004;2022-08-23T03:12:42;14.90;96.80
240;DHT22;104;53.590;10.004;2022-08-23T03:15:10;14.90;96.80
240;DHT22;104;53.590;10.004;2022-08-23T03:17:37;15.00;96.80
240;DHT22;104;53.590;10.004;2022-08-23T03:20:05;15.00;96.80
240;DHT22;104;53.590;10.004;2022-08-23T03:22:32;15.00;96.80
240;DHT22;104;53.590;10.004;2022-08-23T03:25:01;14.90;96.80
240;DHT22;104;53.590;10.004;2022-08-23T03:27:28;14.90;96.80
240;DHT22;104;53.590;10.004;2022-08-23T03:29:56;14.80;96.80
240;DHT22;104;53.590;10.004;2022-08-23T03:32:23;14.80;96.80
240;DHT22;104;53.590;10.004;2022-08-23T03:34:50;14.80;96.80
240;DHT22;104;53.590;10.004;2022-08-23T03:37:18;14.80;96.80
240;DHT22;104;53.590;10.004;2022-08-23T03:39:48;14.80;96.80
240;DHT22;104;53.590;10.004;2022-08-23T03:42:18;14.70;96.80
240;DHT22;104;53.590;10.004;2022-08-23T03:44:45;14.70;96.80
240;DHT22;104;53.590;10.004;2022-08-23T03:47:12;14.70;96.80
240;DHT22;104;53.590;10.004;2022-08-23T03:49:39;14.60;96.80
240;DHT22;104;53.590;10.004;2022-08-23T03:52:06;14.60;96.80
240;DHT22;104;53.590;10.004;2022-08-23T03:54:34;14.50;96.80
240;DHT22;104;53.590;10.004;2022-08-23T03:57:04;14.50;96.80
240;DHT22;104;53.590;10.004;2022-08-23T03:59:36;14.50;96.80
240;DHT22;104;53.590;10.004;2022-08-23T04:02:04;14.40;96.80
240;DHT22;104;53.590;10.004;2022-08-23T04:04:31;14.40;96.80
240;DHT22;104;53.590;10.004;2022-08-23T04:06:58;14.40;96.80
240;DHT22;104;53.590;10.004;2022-08-23T04:09:26;14.30;96.80
240;DHT22;104;53.590;10.004;2022-08-23T04:11:53;14.30;96.80
240;DHT22;104;53.590;10.004;2022-08-23T04:14:20;14.30;96.80
240;DHT22;104;53.590;10.004;2022-08-23T04:16:50;14.30;96.80
240;DHT22;104;53.590;10.004;2022-08-23T04:19:18;14.40;96.80
240;DHT22;104;53.590;10.004;2022-08-23T04:21:47;14.30;96.80
240;DHT22;104;53.590;10.004;2022-08-23T04:24:16;14.40;96.80
240;DHT22;104;53.590;10.004;2022-08-23T04:26:43;14.30;96.80
240;DHT22;104;53.590;10.004;2022-08-23T04:29:10;14.40;96.80
240;DHT22;104;53.590;10.004;2022-08-23T04:31:41;14.40;96.80
240;DHT22;104;53.590;10.004;2022-08-23T04:34:10;14.30;96.80
240;DHT22;104;53.590;10.004;2022-08-23T04:36:41;14.30;96.80
240;DHT22;104;53.590;10.004;2022-08-23T04:39:09;14.30;96.80
240;DHT22;104;53.590;10.004;2022-08-23T04:41:36;14.30;96.80
240;DHT22;104;53.590;10.004;2022-08-23T04:44:21;14.30;96.80
240;DHT22;104;53.590;10.004;2022-08-23T04:46:48;14.30;96.80
240;DHT22;104;53.590;10.004;2022-08-23T04:49:17;14.30;96.80
240;DHT22;104;53.590;10.004;2022-08-23T04:51:45;14.30;96.80
240;DHT22;104;53.590;10.004;2022-08-23T04:54:13;14.20;96.80
240;DHT22;104;53.590;10.004;2022-08-23T04:56:40;14.20;96.80
240;DHT22;104;53.590;10.004;2022-08-23T04:59:08;14.20;96.80
240;DHT22;104;53.590;10.004;2022-08-23T05:01:35;14.30;96.80
240;DHT22;104;53.590;10.004;2022-08-23T05:04:03;14.30;96.80
240;DHT22;104;53.590;10.004;2022-08-23T05:06:31;14.40;96.80
240;DHT22;104;53.590;10.004;2022-08-23T05:08:59;14.50;96.80
240;DHT22;104;53.590;10.004;2022-08-23T05:11:26;14.50;96.80
240;DHT22;104;53.590;10.004;2022-08-23T05:13:54;14.50;96.80
240;DHT22;104;53.590;10.004;2022-08-23T05:16:22;14.60;96.80
240;DHT22;104;53.590;10.004;2022-08-23T05:18:50;14.60;96.80
240;DHT22;104;53.590;10.004;2022-08-23T05:21:19;14.70;96.80
240;DHT22;104;53.590;10.004;2022-08-23T05:23:49;14.70;96.80
240;DHT22;104;53.590;10.004;2022-08-23T05:26:16;14.70;96.80
240;DHT22;104;53.590;10.004;2022-08-23T05:28:46;14.80;96.80
240;DHT22;104;53.590;10.004;2022-08-23T05:31:16;14.70;96.80
240;DHT22;104;53.590;10.004;2022-08-23T05:33:44;14.80;96.80
240;DHT22;104;53.590;10.004;2022-08-23T05:36:12;14.70;96.80
240;DHT22;104;53.590;10.004;2022-08-23T05:38:40;14.70;96.80
240;DHT22;104;53.590;10.004;2022-08-23T05:41:09;14.80;96.80
240;DHT22;104;53.590;10.004;2022-08-23T05:43:37;14.90;96.80
240;DHT22;104;53.590;10.004;2022-08-23T05:46:07;15.10;96.80
240;DHT22;104;53.590;10.004;2022-08-23T05:48:35;15.50;96.70
240;DHT22;104;53.590;10.004;2022-08-23T05:51:11;15.70;94.90
240;DHT22;104;53.590;10.004;2022-08-23T05:53:39;15.90;94.30
240;DHT22;104;53.590;10.004;2022-08-23T05:56:11;16.00;93.40
240;DHT22;104;53.590;10.004;2022-08-23T05:58:38;16.20;92.80
240;DHT22;104;53.590;10.004;2022-08-23T06:01:06;16.50;91.70
240;DHT22;104;53.590;10.004;2022-08-23T06:03:34;16.60;90.20
240;DHT22;104;53.590;10.004;2022-08-23T06:06:01;16.60;90.10
240;DHT22;104;53.590;10.004;2022-08-23T06:08:29;16.60;90.10
240;DHT22;104;53.590;10.004;2022-08-23T06:11:00;16.50;89.80
240;DHT22;104;53.590;10.004;2022-08-23T06:13:29;16.50;89.70
240;DHT22;104;53.590;10.004;2022-08-23T06:15:57;16.80;88.90
240;DHT22;104;53.590;10.004;2022-08-23T06:18:24;16.90;88.90
240;DHT22;104;53.590;10.004;2022-08-23T06:20:59;17.10;88.00
240;DHT22;104;53.590;10.004;2022-08-23T06:23:27;17.40;87.40
240;DHT22;104;53.590;10.004;2022-08-23T06:25:54;17.70;86.30
240;DHT22;104;53.590;10.004;2022-08-23T06:28:21;17.90;85.20
240;DHT22;104;53.590;10.004;2022-08-23T06:30:52;17.90;85.10
240;DHT22;104;53.590;10.004;2022-08-23T06:33:20;18.20;84.90
240;DHT22;104;53.590;10.004;2022-08-23T06:35:47;18.40;84.00
240;DHT22;104;53.590;10.004;2022-08-23T06:38:15;18.50;83.50
240;DHT22;104;53.590;10.004;2022-08-23T06:40:42;18.60;83.30
240;DHT22;104;53.590;10.004;2022-08-23T06:43:09;18.80;83.00
240;DHT22;104;53.590;10.004;2022-08-23T06:45:36;19.10;82.20
240;DHT22;104;53.590;10.004;2022-08-23T06:48:06;19.10;81.10
240;DHT22;104;53.590;10.004;2022-08-23T06:50:34;18.80;82.40
240;DHT22;104;53.590;10.004;2022-08-23T06:53:01;18.90;82.50
240;DHT22;104;53.590;10.004;2022-08-23T06:55:28;19.30;81.80
240;DHT22;104;53.590;10.004;2022-08-23T06:57:56;19.60;80.50
240;DHT22;104;53.590;10.004;2022-08-23T07:00:23;19.90;79.30
240;DHT22;104;53.590;10.004;2022-08-23T07:02:50;20.10;78.60
240;DHT22;104;53.590;10.004;2022-08-23T07:05:18;20.20;78.10
240;DHT22;104;53.590;10.004;2022-08-23T07:07:46;20.30;77.60
240;DHT22;104;53.590;10.004;2022-08-23T07:10:13;20.30;77.60
240;DHT22;104;53.590;10.004;2022-08-23T07:12:41;20.20;77.70
240;DHT22;104;53.590;10.004;2022-08-23T07:15:10;20.30;78.10
240;DHT22;104;53.590;10.004;2022-08-23T07:17:41;20.40;77.50
240;DHT22;104;53.590;10.004;2022-08-23T07:20:09;20.40;77.20
240;DHT22;104;53.590;10.004;2022-08-23T07:22:37;20.40;77.00
240;DHT22;104;53.590;10.004;2022-08-23T07:25:05;20.40;77.00
240;DHT22;104;53.590;10.004;2022-08-23T07:27:32;20.30;77.10
240;DHT22;104;53.590;10.004;2022-08-23T07:29:59;20.00;78.10
240;DHT22;104;53.590;10.004;2022-08-23T07:32:27;19.80;78.90
240;DHT22;104;53.590;10.004;2022-08-23T07:34:54;19.60;79.70
240;DHT22;104;53.590;10.004;2022-08-23T07:37:21;19.30;81.00
240;DHT22;104;53.590;10.004;2022-08-23T07:39:50;19.10;81.70
240;DHT22;104;53.590;10.004;2022-08-23T07:42:17;19.10;81.50
240;DHT22;104;53.590;10.004;2022-08-23T07:44:45;19.00;81.90
240;DHT22;104;53.590;10.004;2022-08-23T07:47:12;19.10;81.40
240;DHT22;104;53.590;10.004;2022-08-23T07:49:39;19.10;80.80
240;DHT22;104;53.590;10.004;2022-08-23T07:52:06;19.10;80.60
240;DHT22;104;53.590;10.004;2022-08-23T07:54:33;19.20;80.50
240;DHT22;104;53.590;10.004;2022-08-23T07:57:02;19.30;80.60
240;DHT22;104;53.590;10.004;2022-08-23T07:59:29;19.30;78.70
240;DHT22;104;53.590;10.004;2022-08-23T08:01:56;19.30;78.50
240;DHT22;104;53.590;10.004;2022-08-23T08:04:23;19.30;78.10
240;DHT22;104;53.590;10.004;2022-08-23T08:06:50;19.30;77.90
240;DHT22;104;53.590;10.004;2022-08-23T08:09:17;19.40;78.20
240;DHT22;104;53.590;10.004;2022-08-23T08:11:46;19.50;77.60
240;DHT22;104;53.590;10.004;2022-08-23T08:14:15;19.50;76.90
240;DHT22;104;53.590;10.004;2022-08-23T08:16:44;19.60;77.00
240;DHT22;104;53.590;10.004;2022-08-23T08:19:12;19.60;76.50
240;DHT22;104;53.590;10.004;2022-08-23T08:21:41;19.80;76.10
240;DHT22;104;53.590;10.004;2022-08-23T08:24:12;19.90;76.10
240;DHT22;104;53.590;10.004;2022-08-23T08:26:39;19.90;75.90
240;DHT22;104;53.590;10.004;2022-08-23T08:29:07;20.00;75.60
240;DHT22;104;53.590;10.004;2022-08-23T08:31:38;20.10;75.10
240;DHT22;104;53.590;10.004;2022-08-23T08:34:10;20.30;73.70
240;DHT22;104;53.590;10.004;2022-08-23T08:36:39;20.40;73.30
240;DHT22;104;53.590;10.004;2022-08-23T08:39:08;20.40;71.00
240;DHT22;104;53.590;10.004;2022-08-23T08:41:49;20.50;71.30
240;DHT22;104;53.590;10.004;2022-08-23T08:44:30;20.70;70.90
240;DHT22;104;53.590;10.004;2022-08-23T08:47:01;20.80;68.10
240;DHT22;104;53.590;10.004;2022-08-23T08:49:36;21.00;67.80
240;DHT22;104;53.590;10.004;2022-08-23T08:52:14;21.00;66.70
240;DHT22;104;53.590;10.004;2022-08-23T08:54:43;21.20;66.80
240;DHT22;104;53.590;10.004;2022-08-23T08:57:15;21.30;63.60
240;DHT22;104;53.590;10.004;2022-08-23T08:59:50;21.40;62.80
240;DHT22;104;53.590;10.004;2022-08-23T09:02:21;21.50;64.20
240;DHT22;104;53.590;10.004;2022-08-23T09:04:50;21.60;65.20
240;DHT22;104;53.590;10.004;2022-08-23T09:07:22;21.70;63.90
240;DHT22;104;53.590;10.004;2022-08-23T09:10:04;21.90;62.90
240;DHT22;104;53.590;10.004;2022-08-23T09:12:50;22.00;60.60
240;DHT22;104;53.590;10.004;2022-08-23T09:15:29;22.10;59.00
240;DHT22;104;53.590;10.004;2022-08-23T09:18:08;22.20;58.40
240;DHT22;104;53.590;10.004;2022-08-23T09:20:37;22.10;58.80
240;DHT22;104;53.590;10.004;2022-08-23T09:23:08;22.20;57.80
240;DHT22;104;53.590;10.004;2022-08-23T09:25:37;22.30;58.20
240;DHT22;104;53.590;10.004;2022-08-23T09:28:04;22.40;58.40
240;DHT22;104;53.590;10.004;2022-08-23T09:30:53;22.50;56.50
240;DHT22;104;53.590;10.004;2022-08-23T09:33:23;22.60;56.20
240;DHT22;104;53.590;10.004;2022-08-23T09:36:13;22.70;55.30
240;DHT22;104;53.590;10.004;2022-08-23T09:38:51;22.80;54.50
240;DHT22;104;53.590;10.004;2022-08-23T09:41:23;23.00;54.60
240;DHT22;104;53.590;10.004;2022-08-23T09:43:52;23.10;54.70
240;DHT22;104;53.590;10.004;2022-08-23T09:46:25;23.20;54.50
240;DHT22;104;53.590;10.004;2022-08-23T09:48:54;23.30;53.40
240;DHT22;104;53.590;10.004;2022-08-23T09:51:24;23.30;52.80
240;DHT22;104;53.590;10.004;2022-08-23T09:54:03;23.30;52.30
240;DHT22;104;53.590;10.004;2022-08-23T09:56:36;23.40;52.10
240;DHT22;104;53.590;10.004;2022-08-23T09:59:19;23.60;52.10
240;DHT22;104;53.590;10.004;2022-08-23T10:01:48;23.60;51.90
240;DHT22;104;53.590;10.004;2022-08-23T10:04:22;23.80;51.80
240;DHT22;104;53.590;10.004;2022-08-23T10:06:50;23.90;50.80
240;DHT22;104;53.590;10.004;2022-08-23T10:09:23;24.00;51.20
240;DHT22;104;53.590;10.004;2022-08-23T10:11:51;24.10;50.80
240;DHT22;104;53.590;10.004;2022-08-23T10:14:20;24.10;50.50
240;DHT22;104;53.590;10.004;2022-08-23T10:16:59;24.20;51.30
240;DHT22;104;53.590;10.004;2022-08-23T10:19:41;24.30;51.10
240;DHT22;104;53.590;10.004;2022-08-23T10:22:13;24.40;51.00
240;DHT22;104;53.590;10.004;2022-08-23T10:24:45;24.40;50.40
240;DHT22;104;53.590;10.004;2022-08-23T10:27:29;24.50;50.40
240;DHT22;104;53.590;10.004;2022-08-23T10:30:18;24.60;50.60
240;DHT22;104;53.590;10.004;2022-08-23T10:32:59;24.70;50.40
240;DHT22;104;53.590;10.004;2022-08-23T10:35:45;24.70;49.40
240;DHT22;104;53.590;10.004;2022-08-23T10:38:31;24.70;50.30
240;DHT22;104;53.590;10.004;2022-08-23T10:41:02;24.90;49.50
240;DHT22;104;53.590;10.004;2022-08-23T10:43:38;24.90;49.10
240;DHT22;104;53.590;10.004;2022-08-23T10:46:07;24.90;48.60
240;DHT22;104;53.590;10.004;2022-08-23T10:48:36;25.00;48.40
240;DHT22;104;53.590;10.004;2022-08-23T10:51:10;25.10;48.20
240;DHT22;104;53.590;10.004;2022-08-23T10:53:44;25.20;47.90
240;DHT22;104;53.590;10.004;2022-08-23T10:56:14;25.20;47.50
240;DHT22;104;53.590;10.004;2022-08-23T10:58:47;25.40;46.40
240;DHT22;104;53.590;10.004;2022-08-23T11:01:20;25.50;47.10
240;DHT22;104;53.590;10.004;2022-08-23T11:03:57;25.60;46.80
240;DHT22;104;53.590;10.004;2022-08-23T11:06:51;25.60;47.00
240;DHT22;104;53.590;10.004;2022-08-23T11:12:22;25.80;46.90
240;DHT22;104;53.590;10.004;2022-08-23T11:15:09;25.90;46.90
240;DHT22;104;53.590;10.004;2022-08-23T11:17:43;26.00;45.90
240;DHT22;104;53.590;10.004;2022-08-23T11:23:39;26.00;45.60
240;DHT22;104;53.590;10.004;2022-08-23T11:26:08;26.00;46.30
240;DHT22;104;53.590;10.004;2022-08-23T11:28:39;26.10;46.70
240;DHT22;104;53.590;10.004;2022-08-23T11:31:25;26.20;46.50
240;DHT22;104;53.590;10.004;2022-08-23T11:34:02;26.30;46.00
240;DHT22;104;53.590;10.004;2022-08-23T11:36:31;26.40;45.50
240;DHT22;104;53.590;10.004;2022-08-23T11:39:06;26.50;45.60
240;DHT22;104;53.590;10.004;2022-08-23T11:41:35;26.50;45.70
240;DHT22;104;53.590;10.004;2022-08-23T11:44:24;26.60;44.80
240;DHT22;104;53.590;10.004;2022-08-23T11:46:59;26.60;44.30
240;DHT22;104;53.590;10.004;2022-08-23T11:53:06;26.60;43.70
240;DHT22;104;53.590;10.004;2022-08-23T11:56:11;26.60;43.60
240;DHT22;104;53.590;10.004;2022-08-23T11:59:06;26.50;43.90
240;DHT22;104;53.590;10.004;2022-08-23T12:01:39;26.70;42.30
240;DHT22;104;53.590;10.004;2022-08-23T12:04:09;26.80;42.30
240;DHT22;104;53.590;10.004;2022-08-23T12:06:43;26.90;42.00
240;DHT22;104;53.590;10.004;2022-08-23T12:09:14;27.00;42.40
240;DHT22;104;53.590;10.004;2022-08-23T12:12:22;26.90;42.10
240;DHT22;104;53.590;10.004;2022-08-23T12:14:53;27.00;42.00
240;DHT22;104;53.590;10.004;2022-08-23T12:20:29;27.10;43.30
240;DHT22;104;53.590;10.004;2022-08-23T12:23:03;27.20;42.60
240;DHT22;104;53.590;10.004;2022-08-23T12:25:32;27.30;43.20
240;DHT22;104;53.590;10.004;2022-08-23T12:28:07;27.40;42.50
240;DHT22;104;53.590;10.004;2022-08-23T12:30:45;27.50;42.60
240;DHT22;104;53.590;10.004;2022-08-23T12:33:25;27.60;42.80
240;DHT22;104;53.590;10.004;2022-08-23T12:36:00;27.60;42.80
240;DHT22;104;53.590;10.004;2022-08-23T12:38:38;27.70;42.60
240;DHT22;104;53.590;10.004;2022-08-23T12:41:21;27.50;43.30
240;DHT22;104;53.590;10.004;2022-08-23T12:44:06;27.40;43.80
240;DHT22;104;53.590;10.004;2022-08-23T12:46:36;27.40;43.90
240;DHT22;104;53.590;10.004;2022-08-23T12:49:05;27.50;43.70
240;DHT22;104;53.590;10.004;2022-08-23T12:51:39;27.60;43.60
240;DHT22;104;53.590;10.004;2022-08-23T12:54:17;27.70;43.50
240;DHT22;104;53.590;10.004;2022-08-23T12:56:46;27.80;43.40
240;DHT22;104;53.590;10.004;2022-08-23T12:59:33;27.70;42.90
240;DHT22;104;53.590;10.004;2022-08-23T13:02:02;27.70;43.00
240;DHT22;104;53.590;10.004;2022-08-23T13:04:31;27.80;44.90
240;DHT22;104;53.590;10.004;2022-08-23T13:07:03;28.00;44.90
240;DHT22;104;53.590;10.004;2022-08-23T13:09:33;28.20;44.60
240;DHT22;104;53.590;10.004;2022-08-23T13:12:03;28.30;44.60
240;DHT22;104;53.590;10.004;2022-08-23T13:14:36;28.40;43.70
240;DHT22;104;53.590;10.004;2022-08-23T13:17:20;28.50;43.80
240;DHT22;104;53.590;10.004;2022-08-23T13:19:49;28.70;44.00
240;DHT22;104;53.590;10.004;2022-08-23T13:22:22;28.80;44.00
240;DHT22;104;53.590;10.004;2022-08-23T13:25:03;28.90;43.90
240;DHT22;104;53.590;10.004;2022-08-23T13:27:33;28.90;43.20
240;DHT22;104;53.590;10.004;2022-08-23T13:30:19;28.70;43.00
240;DHT22;104;53.590;10.004;2022-08-23T13:32:48;28.30;43.10
240;DHT22;104;53.590;10.004;2022-08-23T13:35:32;28.30;42.40
240;DHT22;104;53.590;10.004;2022-08-23T13:38:08;28.50;42.10
240;DHT22;104;53.590;10.004;2022-08-23T13:40:41;28.60;42.40
240;DHT22;104;53.590;10.004;2022-08-23T13:43:11;28.70;44.00
240;DHT22;104;53.590;10.004;2022-08-23T13:45:47;28.60;44.40
240;DHT22;104;53.590;10.004;2022-08-23T13:48:17;28.60;44.50
240;DHT22;104;53.590;10.004;2022-08-23T13:50:45;28.60;44.30
240;DHT22;104;53.590;10.004;2022-08-23T13:53:13;28.60;44.50
240;DHT22;104;53.590;10.004;2022-08-23T13:55:42;28.40;45.10
240;DHT22;104;53.590;10.004;2022-08-23T13:58:11;28.10;46.00
240;DHT22;104;53.590;10.004;2022-08-23T14:00:39;27.70;46.90
240;DHT22;104;53.590;10.004;2022-08-23T14:03:08;27.50;47.30
240;DHT22;104;53.590;10.004;2022-08-23T14:05:35;27.70;46.90
240;DHT22;104;53.590;10.004;2022-08-23T14:08:02;28.00;46.50
240;DHT22;104;53.590;10.004;2022-08-23T14:10:29;28.30;45.80
240;DHT22;104;53.590;10.004;2022-08-23T14:12:57;28.50;45.50
240;DHT22;104;53.590;10.004;2022-08-23T14:15:25;28.30;45.20
240;DHT22;104;53.590;10.004;2022-08-23T14:17:52;28.30;45.60
240;DHT22;104;53.590;10.004;2022-08-23T14:20:22;28.20;45.70
240;DHT22;104;53.590;10.004;2022-08-23T14:22:50;28.20;45.30
240;DHT22;104;53.590;10.004;2022-08-23T14:25:17;28.20;45.70
240;DHT22;104;53.590;10.004;2022-08-23T14:27:47;28.30;45.30
240;DHT22;104;53.590;10.004;2022-08-23T14:30:23;28.40;44.60
240;DHT22;104;53.590;10.004;2022-08-23T14:32:50;28.30;44.50
240;DHT22;104;53.590;10.004;2022-08-23T14:35:18;28.10;44.80
240;DHT22;104;53.590;10.004;2022-08-23T14:37:46;28.20;44.80
240;DHT22;104;53.590;10.004;2022-08-23T14:40:14;28.20;45.10
240;DHT22;104;53.590;10.004;2022-08-23T14:42:41;28.00;45.50
240;DHT22;104;53.590;10.004;2022-08-23T14:45:10;27.90;45.70
240;DHT22;104;53.590;10.004;2022-08-23T14:47:37;27.80;45.90
240;DHT22;104;53.590;10.004;2022-08-23T14:50:07;27.70;46.00
240;DHT22;104;53.590;10.004;2022-08-23T14:52:35;27.50;46.10
240;DHT22;104;53.590;10.004;2022-08-23T14:55:05;27.40;46.60
240;DHT22;104;53.590;10.004;2022-08-23T14:57:33;27.50;46.30
240;DHT22;104;53.590;10.004;2022-08-23T15:00:00;27.70;45.10
240;DHT22;104;53.590;10.004;2022-08-23T15:02:28;27.90;45.10
240;DHT22;104;53.590;10.004;2022-08-23T15:04:56;27.90;45.60
240;DHT22;104;53.590;10.004;2022-08-23T15:07:23;27.70;46.00
240;DHT22;104;53.590;10.004;2022-08-23T15:09:51;27.50;46.20
240;DHT22;104;53.590;10.004;2022-08-23T15:12:22;27.30;46.10
240;DHT22;104;53.590;10.004;2022-08-23T15:14:49;27.20;46.90
240;DHT22;104;53.590;10.004;2022-08-23T15:17:16;27.00;47.70
240;DHT22;104;53.590;10.004;2022-08-23T15:19:43;26.80;48.20
240;DHT22;104;53.590;10.004;2022-08-23T15:22:10;26.80;48.30
240;DHT22;104;53.590;10.004;2022-08-23T15:24:38;27.00;48.20
240;DHT22;104;53.590;10.004;2022-08-23T15:27:06;27.20;47.70
240;DHT22;104;53.590;10.004;2022-08-23T15:29:35;27.50;47.00
240;DHT22;104;53.590;10.004;2022-08-23T15:32:03;27.50;47.10
240;DHT22;104;53.590;10.004;2022-08-23T15:34:30;27.50;47.00
240;DHT22;104;53.590;10.004;2022-08-23T15:37:00;27.40;47.50
240;DHT22;104;53.590;10.004;2022-08-23T15:39:27;27.30;48.10
240;DHT22;104;53.590;10.004;2022-08-23T15:41:55;27.40;48.00
240;DHT22;104;53.590;10.004;2022-08-23T15:44:22;27.50;47.80
240;DHT22;104;53.590;10.004;2022-08-23T15:46:50;27.50;47.60
240;DHT22;104;53.590;10.004;2022-08-23T15:49:17;27.50;47.80
240;DHT22;104;53.590;10.004;2022-08-23T15:51:44;27.50;47.90
240;DHT22;104;53.590;10.004;2022-08-23T15:54:12;27.30;48.40
240;DHT22;104;53.590;10.004;2022-08-23T15:56:41;27.20;48.70
240;DHT22;104;53.590;10.004;2022-08-23T15:59:10;27.20;48.90
240;DHT22;104;53.590;10.004;2022-08-23T16:01:38;27.20;48.40
240;DHT22;104;53.590;10.004;2022-08-23T16:04:07;27.30;48.10
240;DHT22;104;53.590;10.004;2022-08-23T16:06:35;27.40;48.50
240;DHT22;104;53.590;10.004;2022-08-23T16:09:04;27.40;47.30
240;DHT22;104;53.590;10.004;2022-08-23T16:11:32;27.50;47.20
240;DHT22;104;53.590;10.004;2022-08-23T16:13:59;27.50;47.30
240;DHT22;104;53.590;10.004;2022-08-23T16:16:28;27.60;48.00
240;DHT22;104;53.590;10.004;2022-08-23T16:18:56;27.50;49.30
240;DHT22;104;53.590;10.004;2022-08-23T16:21:27;27.30;49.60
240;DHT22;104;53.590;10.004;2022-08-23T16:23:56;27.20;48.30
240;DHT22;104;53.590;10.004;2022-08-23T16:26:26;27.20;47.20
240;DHT22;104;53.590;10.004;2022-08-23T16:28:55;27.10;47.70
240;DHT22;104;53.590;10.004;2022-08-23T16:31:23;27.00;47.80
240;DHT22;104;53.590;10.004;2022-08-23T16:33:54;26.90;48.50
240;DHT22;104;53.590;10.004;2022-08-23T16:36:22;26.90;54.10
240;DHT22;104;53.590;10.004;2022-08-23T16:38:50;26.80;55.90
240;DHT22;104;53.590;10.004;2022-08-23T16:41:18;26.60;58.40
240;DHT22;104;53.590;10.004;2022-08-23T16:43:46;26.50;59.50
240;DHT22;104;53.590;10.004;2022-08-23T16:46:13;26.40;60.20
240;DHT22;104;53.590;10.004;2022-08-23T16:48:42;26.20;60.50
240;DHT22;104;53.590;10.004;2022-08-23T16:51:09;26.10;61.40
240;DHT22;104;53.590;10.004;2022-08-23T16:53:37;26.00;62.70
240;DHT22;104;53.590;10.004;2022-08-23T16:56:06;25.70;64.00